sensor_id;sensor_type;location;lat;lon;timestamp;pressure;altitude;pressure_sealevel;temperature;humidity
70200;BME280;57587;55.688;37.600;2023-02-18T00:01:31;99583.88;;;-7.00;62.67
70200;BME280;57587;55.688;37.600;2023-02-18T00:03:59;99576.50;;;-7.09;62.18
70200;BME280;57587;55.688;37.600;2023-02-18T00:06:31;99572.56;;;-6.99;62.06
70200;BME280;57587;55.688;37.600;2023-02-18T00:08:59;99568.50;;;-7.05;61.66
70200;BME280;57587;55.688;37.600;2023-02-18T00:11:29;99568.84;;;-7.12;61.36
70200;BME280;57587;55.688;37.600;2023-02-18T00:13:59;99565.22;;;-7.08;61.54
70200;BME280;57587;55.688;37.600;2023-02-18T00:16:28;99565.66;;;-7.17;62.40
70200;BME280;57587;55.688;37.600;2023-02-18T00:18:56;99561.00;;;-7.11;61.90
70200;BME280;57587;55.688;37.600;2023-02-18T00:21:24;99564.94;;;-7.21;61.91
70200;BME280;57587;55.688;37.600;2023-02-18T00:23:51;99557.69;;;-7.14;62.51
70200;BME280;57587;55.688;37.600;2023-02-18T00:26:19;99539.19;;;-7.08;61.55
70200;BME280;57587;55.688;37.600;2023-02-18T00:28:48;99544.84;;;-7.00;61.18
70200;BME280;57587;55.688;37.600;2023-02-18T00:31:18;99546.63;;;-7.01;61.58
70200;BME280;57587;55.688;37.600;2023-02-18T00:33:45;99552.81;;;-7.03;61.15
70200;BME280;57587;55.688;37.600;2023-02-18T00:36:16;99546.31;;;-7.12;61.67
70200;BME280;57587;55.688;37.600;2023-02-18T00:38:49;99548.81;;;-7.10;61.52
70200;BME280;57587;55.688;37.600;2023-02-18T00:41:17;99547.78;;;-7.25;61.56
70200;BME280;57587;55.688;37.600;2023-02-18T00:43:45;99537.34;;;-7.43;62.85
70200;BME280;57587;55.688;37.600;2023-02-18T00:46:13;99531.19;;;-7.40;62.54
70200;BME280;57587;55.688;37.600;2023-02-18T00:48:40;99536.53;;;-7.43;62.44
70200;BME280;57587;55.688;37.600;2023-02-18T00:51:09;99532.75;;;-7.37;62.69
70200;BME280;57587;55.688;37.600;2023-02-18T00:53:38;99539.03;;;-7.42;62.16
70200;BME280;57587;55.688;37.600;2023-02-18T00:56:06;99533.00;;;-7.42;61.53
70200;BME280;57587;55.688;37.600;2023-02-18T00:58:34;99525.50;;;-7.48;61.87
70200;BME280;57587;55.688;37.600;2023-02-18T01:01:04;99530.88;;;-7.53;62.07
70200;BME280;57587;55.688;37.600;2023-02-18T01:03:38;99521.81;;;-7.44;61.94
70200;BME280;57587;55.688;37.600;2023-02-18T01:06:07;99516.84;;;-7.49;61.82
70200;BME280;57587;55.688;37.600;2023-02-18T01:08:35;99502.25;;;-7.51;62.17
70200;BME280;57587;55.688;37.600;2023-02-18T01:11:04;99509.66;;;-7.44;62.19
70200;BME280;57587;55.688;37.600;2023-02-18T01:13:32;99511.38;;;-7.43;61.87
70200;BME280;57587;55.688;37.600;2023-02-18T01:15:59;99489.59;;;-7.59;61.77
70200;BME280;57587;55.688;37.600;2023-02-18T01:18:28;99483.69;;;-7.62;62.57
70200;BME280;57587;55.688;37.600;2023-02-18T01:20:56;99481.47;;;-7.70;62.87
70200;BME280;57587;55.688;37.600;2023-02-18T01:23:23;99475.16;;;-7.64;62.64
70200;BME280;57587;55.688;37.600;2023-02-18T01:25:51;99463.75;;;-7.62;62.23
70200;BME280;57587;55.688;37.600;2023-02-18T01:28:19;99453.50;;;-7.65;62.05
70200;BME280;57587;55.688;37.600;2023-02-18T01:30:52;99460.47;;;-7.66;61.78
70200;BME280;57587;55.688;37.600;2023-02-18T01:33:19;99471.09;;;-7.53;61.77
70200;BME280;57587;55.688;37.600;2023-02-18T01:35:47;99450.69;;;-7.60;61.68
70200;BME280;57587;55.688;37.600;2023-02-18T01:38:14;99445.25;;;-7.73;62.73
70200;BME280;57587;55.688;37.600;2023-02-18T01:40:50;99442.69;;;-7.75;62.58
70200;BME280;57587;55.688;37.600;2023-02-18T01:43:20;99436.66;;;-7.75;62.88
70200;BME280;57587;55.688;37.600;2023-02-18T01:46:13;99426.53;;;-7.62;62.08
70200;BME280;57587;55.688;37.600;2023-02-18T01:51:23;99430.03;;;-7.45;62.00
70200;BME280;57587;55.688;37.600;2023-02-18T01:54:05;99418.41;;;-7.37;61.97
70200;BME280;57587;55.688;37.600;2023-02-18T01:56:36;99412.84;;;-7.30;62.22
70200;BME280;57587;55.688;37.600;2023-02-18T01:59:12;99410.09;;;-7.27;61.58
70200;BME280;57587;55.688;37.600;2023-02-18T02:01:43;99413.50;;;-7.44;61.42
70200;BME280;57587;55.688;37.600;2023-02-18T02:04:11;99411.13;;;-7.31;61.43
70200;BME280;57587;55.688;37.600;2023-02-18T02:06:40;99392.34;;;-7.36;61.65
70200;BME280;57587;55.688;37.600;2023-02-18T02:09:10;99408.31;;;-7.26;61.75
70200;BME280;57587;55.688;37.600;2023-02-18T02:12:01;99399.06;;;-7.32;62.16
70200;BME280;57587;55.688;37.600;2023-02-18T02:14:54;99403.28;;;-7.29;62.10
70200;BME280;57587;55.688;37.600;2023-02-18T02:18:31;99395.47;;;-7.29;61.65
70200;BME280;57587;55.688;37.600;2023-02-18T02:29:46;99380.72;;;-7.11;62.23
70200;BME280;57587;55.688;37.600;2023-02-18T02:32:35;99386.75;;;-7.11;60.83
70200;BME280;57587;55.688;37.600;2023-02-18T02:35:35;99379.91;;;-7.12;61.55
70200;BME280;57587;55.688;37.600;2023-02-18T02:38:30;99383.25;;;-7.10;61.01
70200;BME280;57587;55.688;37.600;2023-02-18T02:41:12;99375.44;;;-7.10;60.95
70200;BME280;57587;55.688;37.600;2023-02-18T02:46:37;99376.91;;;-7.04;61.84
70200;BME280;57587;55.688;37.600;2023-02-18T02:51:53;99360.97;;;-6.98;61.72
70200;BME280;57587;55.688;37.600;2023-02-18T02:54:26;99361.13;;;-7.01;61.47
70200;BME280;57587;55.688;37.600;2023-02-18T02:59:40;99344.84;;;-7.05;61.48
70200;BME280;57587;55.688;37.600;2023-02-18T03:08:04;99331.78;;;-7.21;63.37
70200;BME280;57587;55.688;37.600;2023-02-18T03:22:19;99323.16;;;-7.56;64.01
70200;BME280;57587;55.688;37.600;2023-02-18T03:24:50;99321.94;;;-7.66;65.25
70200;BME280;57587;55.688;37.600;2023-02-18T03:30:02;99302.28;;;-7.72;65.29
70200;BME280;57587;55.688;37.600;2023-02-18T03:32:30;99298.34;;;-7.61;65.31
70200;BME280;57587;55.688;37.600;2023-02-18T03:35:05;99297.03;;;-7.70;65.58
70200;BME280;57587;55.688;37.600;2023-02-18T03:37:37;99299.38;;;-7.66;65.12
70200;BME280;57587;55.688;37.600;2023-02-18T03:40:09;99284.25;;;-7.57;66.08
70200;BME280;57587;55.688;37.600;2023-02-18T03:42:36;99269.19;;;-7.68;65.52
70200;BME280;57587;55.688;37.600;2023-02-18T03:45:05;99273.94;;;-7.76;65.67
70200;BME280;57587;55.688;37.600;2023-02-18T03:47:32;99276.84;;;-7.65;65.77
70200;BME280;57587;55.688;37.600;2023-02-18T03:49:59;99276.00;;;-7.48;66.09
70200;BME280;57587;55.688;37.600;2023-02-18T03:52:27;99281.09;;;-7.47;65.33
70200;BME280;57587;55.688;37.600;2023-02-18T03:54:54;99293.19;;;-7.63;65.87
70200;BME280;57587;55.688;37.600;2023-02-18T03:57:21;99278.06;;;-7.72;65.91
70200;BME280;57587;55.688;37.600;2023-02-18T03:59:48;99253.53;;;-8.01;66.96
70200;BME280;57587;55.688;37.600;2023-02-18T04:02:15;99251.78;;;-7.83;66.18
70200;BME280;57587;55.688;37.600;2023-02-18T04:04:42;99252.25;;;-7.93;66.51
70200;BME280;57587;55.688;37.600;2023-02-18T04:07:09;99262.38;;;-8.05;67.01
70200;BME280;57587;55.688;37.600;2023-02-18T04:09:36;99249.94;;;-8.16;68.18
70200;BME280;57587;55.688;37.600;2023-02-18T04:12:03;99252.66;;;-8.19;67.61
70200;BME280;57587;55.688;37.600;2023-02-18T04:14:30;99230.25;;;-8.20;67.90
70200;BME280;57587;55.688;37.600;2023-02-18T04:16:57;99247.28;;;-8.33;68.84
70200;BME280;57587;55.688;37.600;2023-02-18T04:19:24;99222.16;;;-8.14;68.23
70200;BME280;57587;55.688;37.600;2023-02-18T04:21:51;99225.50;;;-8.12;67.96
70200;BME280;57587;55.688;37.600;2023-02-18T04:24:19;99257.78;;;-8.18;68.63
70200;BME280;57587;55.688;37.600;2023-02-18T04:26:46;99210.38;;;-8.21;68.46
70200;BME280;57587;55.688;37.600;2023-02-18T04:29:13;99219.34;;;-7.92;67.63
70200;BME280;57587;55.688;37.600;2023-02-18T04:31:40;99211.16;;;-8.02;67.18
70200;BME280;57587;55.688;37.600;2023-02-18T04:34:07;99211.75;;;-7.97;67.82
70200;BME280;57587;55.688;37.600;2023-02-18T04:36:34;99200.78;;;-8.02;67.60
70200;BME280;57587;55.688;37.600;2023-02-18T04:39:01;99204.44;;;-7.89;68.13
70200;BME280;57587;55.688;37.600;2023-02-18T04:41:29;99188.84;;;-7.89;66.78
70200;BME280;57587;55.688;37.600;2023-02-18T04:43:56;99180.75;;;-7.82;67.44
70200;BME280;57587;55.688;37.600;2023-02-18T04:46:25;99188.38;;;-7.79;66.44
70200;BME280;57587;55.688;37.600;2023-02-18T04:48:52;99188.66;;;-7.51;66.42
70200;BME280;57587;55.688;37.600;2023-02-18T04:51:19;99195.44;;;-7.48;66.10
70200;BME280;57587;55.688;37.600;2023-02-18T04:53:46;99186.50;;;-7.43;65.61
70200;BME280;57587;55.688;37.600;2023-02-18T04:56:13;99178.53;;;-7.39;65.78
70200;BME280;57587;55.688;37.600;2023-02-18T04:58:40;99188.53;;;-7.32;64.80
70200;BME280;57587;55.688;37.600;2023-02-18T05:01:07;99192.56;;;-7.26;65.16
70200;BME280;57587;55.688;37.600;2023-02-18T05:03:34;99186.94;;;-7.19;64.95
70200;BME280;57587;55.688;37.600;2023-02-18T05:06:02;99176.03;;;-7.25;64.82
70200;BME280;57587;55.688;37.600;2023-02-18T05:08:29;99157.84;;;-7.25;64.14
70200;BME280;57587;55.688;37.600;2023-02-18T05:10:56;99185.75;;;-7.62;64.72
70200;BME280;57587;55.688;37.600;2023-02-18T05:13:23;99164.91;;;-7.60;65.11
70200;BME280;57587;55.688;37.600;2023-02-18T05:15:51;99170.56;;;-7.70;65.35
70200;BME280;57587;55.688;37.600;2023-02-18T05:18:18;99169.41;;;-7.64;65.02
70200;BME280;57587;55.688;37.600;2023-02-18T05:20:45;99174.03;;;-7.86;66.27
70200;BME280;57587;55.688;37.600;2023-02-18T05:23:12;99157.44;;;-7.84;65.28
70200;BME280;57587;55.688;37.600;2023-02-18T05:26:02;99158.56;;;-7.72;65.99
70200;BME280;57587;55.688;37.600;2023-02-18T05:28:27;99145.28;;;-7.66;66.01
70200;BME280;57587;55.688;37.600;2023-02-18T05:30:55;99157.94;;;-7.60;64.34
70200;BME280;57587;55.688;37.600;2023-02-18T05:33:22;99148.16;;;-7.55;65.67
70200;BME280;57587;55.688;37.600;2023-02-18T05:35:49;99136.59;;;-7.49;65.34
70200;BME280;57587;55.688;37.600;2023-02-18T05:38:17;99131.00;;;-7.42;64.87
70200;BME280;57587;55.688;37.600;2023-02-18T05:40:44;99120.88;;;-7.30;64.35
70200;BME280;57587;55.688;37.600;2023-02-18T05:43:12;99128.91;;;-7.19;64.22
70200;BME280;57587;55.688;37.600;2023-02-18T05:45:39;99115.00;;;-7.02;64.86
70200;BME280;57587;55.688;37.600;2023-02-18T05:48:06;99116.00;;;-6.89;64.31
70200;BME280;57587;55.688;37.600;2023-02-18T05:50:34;99109.84;;;-6.88;62.84
70200;BME280;57587;55.688;37.600;2023-02-18T05:53:01;99109.81;;;-7.02;63.54
70200;BME280;57587;55.688;37.600;2023-02-18T05:55:28;99096.53;;;-7.13;63.81
70200;BME280;57587;55.688;37.600;2023-02-18T05:57:55;99096.47;;;-6.96;63.84
70200;BME280;57587;55.688;37.600;2023-02-18T06:00:22;99092.44;;;-7.17;64.10
70200;BME280;57587;55.688;37.600;2023-02-18T06:02:49;99081.13;;;-7.32;64.15
70200;BME280;57587;55.688;37.600;2023-02-18T06:05:16;99088.47;;;-7.25;63.67
70200;BME280;57587;55.688;37.600;2023-02-18T06:07:44;99085.53;;;-7.34;63.38
70200;BME280;57587;55.688;37.600;2023-02-18T06:10:11;99099.19;;;-7.47;63.78
70200;BME280;57587;55.688;37.600;2023-02-18T06:12:38;99072.81;;;-7.55;63.58
70200;BME280;57587;55.688;37.600;2023-02-18T06:15:06;99091.25;;;-7.44;63.44
70200;BME280;57587;55.688;37.600;2023-02-18T06:17:33;99085.81;;;-7.39;63.05
70200;BME280;57587;55.688;37.600;2023-02-18T06:20:00;99080.00;;;-7.44;63.79
70200;BME280;57587;55.688;37.600;2023-02-18T06:22:29;99059.38;;;-7.31;63.12
70200;BME280;57587;55.688;37.600;2023-02-18T06:24:56;99077.91;;;-7.37;62.61
70200;BME280;57587;55.688;37.600;2023-02-18T06:27:23;99062.81;;;-7.47;62.96
70200;BME280;57587;55.688;37.600;2023-02-18T06:29:50;99059.66;;;-7.52;63.95
70200;BME280;57587;55.688;37.600;2023-02-18T06:32:17;99056.63;;;-7.28;63.92
70200;BME280;57587;55.688;37.600;2023-02-18T06:34:44;99056.97;;;-7.34;63.00
70200;BME280;57587;55.688;37.600;2023-02-18T06:37:12;99070.72;;;-7.16;62.55
70200;BME280;57587;55.688;37.600;2023-02-18T06:39:39;99060.81;;;-7.26;62.43
70200;BME280;57587;55.688;37.600;2023-02-18T06:42:06;99069.38;;;-7.08;62.19
70200;BME280;57587;55.688;37.600;2023-02-18T06:44:33;99055.84;;;-6.99;60.81
70200;BME280;57587;55.688;37.600;2023-02-18T06:47:03;99045.78;;;-6.59;60.57
70200;BME280;57587;55.688;37.600;2023-02-18T06:49:30;99043.22;;;-6.30;58.89
70200;BME280;57587;55.688;37.600;2023-02-18T06:51:57;99041.66;;;-6.33;57.90
70200;BME280;57587;55.688;37.600;2023-02-18T06:54:24;99018.72;;;-5.70;57.58
70200;BME280;57587;55.688;37.600;2023-02-18T06:56:51;99022.34;;;-4.50;53.50
70200;BME280;57587;55.688;37.600;2023-02-18T06:59:18;99026.09;;;-4.54;52.51
70200;BME280;57587;55.688;37.600;2023-02-18T07:01:45;99028.41;;;-4.90;53.10
70200;BME280;57587;55.688;37.600;2023-02-18T07:04:12;99005.47;;;-5.39;54.79
70200;BME280;57587;55.688;37.600;2023-02-18T07:06:39;99013.56;;;-5.29;55.50
70200;BME280;57587;55.688;37.600;2023-02-18T07:09:06;98999.50;;;-5.26;54.82
70200;BME280;57587;55.688;37.600;2023-02-18T07:11:34;99011.03;;;-5.30;54.93
70200;BME280;57587;55.688;37.600;2023-02-18T07:14:01;98998.91;;;-5.73;55.70
70200;BME280;57587;55.688;37.600;2023-02-18T07:16:28;98983.41;;;-5.89;56.29
70200;BME280;57587;55.688;37.600;2023-02-18T07:18:55;98992.03;;;-5.60;56.39
70200;BME280;57587;55.688;37.600;2023-02-18T07:21:22;98978.06;;;-5.59;55.98
70200;BME280;57587;55.688;37.600;2023-02-18T07:23:49;98977.47;;;-5.49;56.07
70200;BME280;57587;55.688;37.600;2023-02-18T07:26:16;98970.94;;;-5.84;56.65
70200;BME280;57587;55.688;37.600;2023-02-18T07:28:43;98978.50;;;-5.93;56.69
70200;BME280;57587;55.688;37.600;2023-02-18T07:31:10;98976.38;;;-6.01;57.19
70200;BME280;57587;55.688;37.600;2023-02-18T07:33:37;98961.00;;;-5.91;57.60
70200;BME280;57587;55.688;37.600;2023-02-18T07:36:05;98952.94;;;-5.74;57.04
70200;BME280;57587;55.688;37.600;2023-02-18T07:38:32;98972.84;;;-5.73;57.47
70200;BME280;57587;55.688;37.600;2023-02-18T07:40:59;98943.34;;;-5.59;57.09
70200;BME280;57587;55.688;37.600;2023-02-18T07:43:26;98949.75;;;-5.23;56.35
70200;BME280;57587;55.688;37.600;2023-02-18T07:45:54;98943.06;;;-5.15;55.52
70200;BME280;57587;55.688;37.600;2023-02-18T07:48:21;98967.41;;;-5.41;56.10
70200;BME280;57587;55.688;37.600;2023-02-18T07:50:48;98940.94;;;-5.35;55.87
70200;BME280;57587;55.688;37.600;2023-02-18T07:53:15;98939.25;;;-4.83;55.37
70200;BME280;57587;55.688;37.600;2023-02-18T07:55:42;98937.53;;;-4.83;54.74
70200;BME280;57587;55.688;37.600;2023-02-18T07:58:21;98924.34;;;-4.94;55.50
70200;BME280;57587;55.688;37.600;2023-02-18T08:00:50;98934.78;;;-5.34;56.31
70200;BME280;57587;55.688;37.600;2023-02-18T08:03:19;98918.19;;;-5.33;56.81
70200;BME280;57587;55.688;37.600;2023-02-18T08:05:48;98917.75;;;-5.40;57.54
70200;BME280;57587;55.688;37.600;2023-02-18T08:08:18;98910.00;;;-5.54;58.18
70200;BME280;57587;55.688;37.600;2023-02-18T08:10:49;98899.88;;;-5.73;58.42
70200;BME280;57587;55.688;37.600;2023-02-18T08:13:17;98900.06;;;-5.62;58.76
70200;BME280;57587;55.688;37.600;2023-02-18T08:15:44;98904.13;;;-5.58;58.61
70200;BME280;57587;55.688;37.600;2023-02-18T08:18:19;98894.97;;;-6.05;59.87
70200;BME280;57587;55.688;37.600;2023-02-18T08:20:48;98882.91;;;-6.06;60.02
70200;BME280;57587;55.688;37.600;2023-02-18T08:23:18;98884.91;;;-5.69;60.85
70200;BME280;57587;55.688;37.600;2023-02-18T08:25:48;98886.91;;;-5.87;60.25
70200;BME280;57587;55.688;37.600;2023-02-18T08:28:57;98893.28;;;-5.91;60.49
70200;BME280;57587;55.688;37.600;2023-02-18T08:31:32;98881.72;;;-5.87;61.02
70200;BME280;57587;55.688;37.600;2023-02-18T08:34:22;98878.56;;;-5.92;61.17
70200;BME280;57587;55.688;37.600;2023-02-18T08:36:51;98845.69;;;-6.08;61.68
70200;BME280;57587;55.688;37.600;2023-02-18T08:39:18;98860.47;;;-5.94;61.88
70200;BME280;57587;55.688;37.600;2023-02-18T08:41:45;98875.91;;;-5.78;61.22
70200;BME280;57587;55.688;37.600;2023-02-18T08:44:12;98843.16;;;-5.55;61.05
70200;BME280;57587;55.688;37.600;2023-02-18T08:46:40;98850.72;;;-5.65;61.22
70200;BME280;57587;55.688;37.600;2023-02-18T08:49:07;98890.16;;;-5.84;61.41
70200;BME280;57587;55.688;37.600;2023-02-18T08:51:34;98832.97;;;-5.85;62.25
70200;BME280;57587;55.688;37.600;2023-02-18T08:54:01;98841.44;;;-5.69;61.37
70200;BME280;57587;55.688;37.600;2023-02-18T08:56:29;98835.91;;;-5.64;61.79
70200;BME280;57587;55.688;37.600;2023-02-18T08:58:57;98822.44;;;-5.44;61.80
70200;BME280;57587;55.688;37.600;2023-02-18T09:01:24;98814.75;;;-5.32;60.85
70200;BME280;57587;55.688;37.600;2023-02-18T09:03:51;98824.50;;;-5.36;61.00
70200;BME280;57587;55.688;37.600;2023-02-18T09:06:19;98812.22;;;-5.21;61.10
70200;BME280;57587;55.688;37.600;2023-02-18T09:08:46;98804.31;;;-4.94;60.62
70200;BME280;57587;55.688;37.600;2023-02-18T09:11:13;98804.09;;;-4.91;60.51
70200;BME280;57587;55.688;37.600;2023-02-18T09:13:40;98819.03;;;-5.06;60.63
70200;BME280;57587;55.688;37.600;2023-02-18T09:16:15;98798.78;;;-5.02;60.17
70200;BME280;57587;55.688;37.600;2023-02-18T09:18:46;98813.81;;;-5.19;60.71
70200;BME280;57587;55.688;37.600;2023-02-18T09:21:15;98795.34;;;-5.28;61.12
70200;BME280;57587;55.688;37.600;2023-02-18T09:23:42;98786.34;;;-5.12;61.32
70200;BME280;57587;55.688;37.600;2023-02-18T09:26:12;98773.66;;;-5.16;60.72
70200;BME280;57587;55.688;37.600;2023-02-18T09:28:40;98771.88;;;-5.16;60.93
70200;BME280;57587;55.688;37.600;2023-02-18T09:31:12;98764.53;;;-4.85;60.95
70200;BME280;57587;55.688;37.600;2023-02-18T09:33:41;98751.97;;;-4.54;59.74
70200;BME280;57587;55.688;37.600;2023-02-18T09:36:12;98749.09;;;-4.14;58.91
70200;BME280;57587;55.688;37.600;2023-02-18T09:38:39;98748.66;;;-4.32;59.08
70200;BME280;57587;55.688;37.600;2023-02-18T09:41:13;98744.91;;;-4.41;57.97
70200;BME280;57587;55.688;37.600;2023-02-18T09:43:44;98739.13;;;-4.57;58.33
70200;BME280;57587;55.688;37.600;2023-02-18T09:46:19;98732.84;;;-4.55;58.83
70200;BME280;57587;55.688;37.600;2023-02-18T09:48:48;98734.31;;;-4.27;58.03
70200;BME280;57587;55.688;37.600;2023-02-18T09:51:18;98724.09;;;-4.30;58.17
70200;BME280;57587;55.688;37.600;2023-02-18T09:53:46;98710.97;;;-4.17;56.92
70200;BME280;57587;55.688;37.600;2023-02-18T09:56:16;98774.03;;;-4.34;57.02
70200;BME280;57587;55.688;37.600;2023-02-18T09:58:46;98709.69;;;-4.11;57.26
70200;BME280;57587;55.688;37.600;2023-02-18T10:01:35;98701.19;;;-3.56;56.38
70200;BME280;57587;55.688;37.600;2023-02-18T10:04:12;98693.38;;;-3.11;54.88
70200;BME280;57587;55.688;37.600;2023-02-18T10:06:42;98686.44;;;-2.56;54.06
70200;BME280;57587;55.688;37.600;2023-02-18T10:09:19;98671.25;;;-2.09;52.49
70200;BME280;57587;55.688;37.600;2023-02-18T10:11:54;98672.44;;;-1.80;51.03
70200;BME280;57587;55.688;37.600;2023-02-18T10:14:24;98679.31;;;-0.76;48.40
70200;BME280;57587;55.688;37.600;2023-02-18T10:16:52;98669.72;;;-0.08;46.98
70200;BME280;57587;55.688;37.600;2023-02-18T10:19:33;98679.91;;;-0.63;47.33
70200;BME280;57587;55.688;37.600;2023-02-18T10:22:03;98684.41;;;-1.15;48.58
70200;BME280;57587;55.688;37.600;2023-02-18T10:24:34;98645.38;;;-0.29;46.73
70200;BME280;57587;55.688;37.600;2023-02-18T10:27:05;98650.59;;;0.29;46.16
70200;BME280;57587;55.688;37.600;2023-02-18T10:29:33;98653.34;;;-0.70;47.21
70200;BME280;57587;55.688;37.600;2023-02-18T10:34:46;98627.41;;;-0.34;46.57
70200;BME280;57587;55.688;37.600;2023-02-18T10:37:30;98624.78;;;1.17;44.52
70200;BME280;57587;55.688;37.600;2023-02-18T10:45:35;98634.81;;;1.59;41.53
70200;BME280;57587;55.688;37.600;2023-02-18T10:51:28;98614.66;;;-0.38;45.20
70200;BME280;57587;55.688;37.600;2023-02-18T10:53:57;98608.69;;;-0.60;46.28
70200;BME280;57587;55.688;37.600;2023-02-18T10:59:21;98602.44;;;-0.78;46.76
70200;BME280;57587;55.688;37.600;2023-02-18T11:01:55;98596.81;;;-0.44;47.06
70200;BME280;57587;55.688;37.600;2023-02-18T11:04:37;98602.41;;;0.29;45.20
70200;BME280;57587;55.688;37.600;2023-02-18T11:07:12;98596.88;;;0.32;44.87
70200;BME280;57587;55.688;37.600;2023-02-18T11:09:54;98595.53;;;-0.02;45.84
70200;BME280;57587;55.688;37.600;2023-02-18T11:17:45;98589.00;;;0.69;44.37
70200;BME280;57587;55.688;37.600;2023-02-18T11:23:13;98577.75;;;0.30;44.49
70200;BME280;57587;55.688;37.600;2023-02-18T11:25:41;98567.84;;;0.04;45.46
70200;BME280;57587;55.688;37.600;2023-02-18T11:30:48;98561.22;;;-0.87;47.36
70200;BME280;57587;55.688;37.600;2023-02-18T11:38:54;98549.63;;;-1.75;48.59
70200;BME280;57587;55.688;37.600;2023-02-18T11:47:03;98546.97;;;-3.12;53.00
70200;BME280;57587;55.688;37.600;2023-02-18T11:49:33;98538.59;;;-2.95;52.83
70200;BME280;57587;55.688;37.600;2023-02-18T11:52:18;98542.91;;;-3.05;53.01
70200;BME280;57587;55.688;37.600;2023-02-18T11:57:41;98548.38;;;-2.97;52.78
70200;BME280;57587;55.688;37.600;2023-02-18T12:00:22;98550.34;;;-3.33;53.60
70200;BME280;57587;55.688;37.600;2023-02-18T12:02:51;98521.31;;;-3.41;54.29
70200;BME280;57587;55.688;37.600;2023-02-18T12:05:24;98562.72;;;-3.46;53.94
70200;BME280;57587;55.688;37.600;2023-02-18T12:08:02;98513.38;;;-3.51;54.37
70200;BME280;57587;55.688;37.600;2023-02-18T12:10:38;98516.13;;;-3.63;54.98
70200;BME280;57587;55.688;37.600;2023-02-18T12:13:26;98505.81;;;-3.76;55.56
70200;BME280;57587;55.688;37.600;2023-02-18T12:30:42;98498.56;;;-3.84;56.42
70200;BME280;57587;55.688;37.600;2023-02-18T12:39:45;98500.72;;;-3.78;55.74
70200;BME280;57587;55.688;37.600;2023-02-18T13:01:42;98465.53;;;-3.85;56.72
70200;BME280;57587;55.688;37.600;2023-02-18T13:10:27;98452.25;;;-4.27;57.43
70200;BME280;57587;55.688;37.600;2023-02-18T13:13:03;98464.47;;;-4.38;57.46
70200;BME280;57587;55.688;37.600;2023-02-18T13:18:13;98456.97;;;-4.54;57.78
70200;BME280;57587;55.688;37.600;2023-02-18T13:20:47;98437.72;;;-4.53;58.38
70200;BME280;57587;55.688;37.600;2023-02-18T13:23:21;98429.78;;;-4.52;58.06
70200;BME280;57587;55.688;37.600;2023-02-18T13:25:54;98444.00;;;-4.56;58.44
70200;BME280;57587;55.688;37.600;2023-02-18T13:28:33;98438.31;;;-4.50;58.53
70200;BME280;57587;55.688;37.600;2023-02-18T13:36:32;98426.94;;;-4.37;58.46
70200;BME280;57587;55.688;37.600;2023-02-18T13:39:08;98430.16;;;-4.45;58.50
70200;BME280;57587;55.688;37.600;2023-02-18T13:41:41;98420.31;;;-4.42;58.50
70200;BME280;57587;55.688;37.600;2023-02-18T13:46:57;98407.72;;;-4.25;58.04
70200;BME280;57587;55.688;37.600;2023-02-18T13:49:32;98408.09;;;-4.30;58.26
70200;BME280;57587;55.688;37.600;2023-02-18T13:52:01;98419.72;;;-4.45;59.17
70200;BME280;57587;55.688;37.600;2023-02-18T13:57:20;98405.44;;;-4.64;59.49
70200;BME280;57587;55.688;37.600;2023-02-18T13:59:56;98401.38;;;-4.68;59.63
70200;BME280;57587;55.688;37.600;2023-02-18T14:09:54;98395.59;;;-4.60;60.22
70200;BME280;57587;55.688;37.600;2023-02-18T14:14:57;98400.06;;;-4.84;60.47
70200;BME280;57587;55.688;37.600;2023-02-18T14:17:40;98397.47;;;-4.84;60.54
70200;BME280;57587;55.688;37.600;2023-02-18T14:22:47;98377.31;;;-4.71;60.26
70200;BME280;57587;55.688;37.600;2023-02-18T14:28:11;98378.00;;;-4.92;60.27
70200;BME280;57587;55.688;37.600;2023-02-18T14:30:50;98379.78;;;-4.92;60.59
70200;BME280;57587;55.688;37.600;2023-02-18T14:33:18;98365.09;;;-4.82;60.37
70200;BME280;57587;55.688;37.600;2023-02-18T14:35:56;98367.00;;;-4.61;59.82
70200;BME280;57587;55.688;37.600;2023-02-18T14:47:01;98425.81;;;-4.80;59.83
70200;BME280;57587;55.688;37.600;2023-02-18T14:49:45;98386.38;;;-4.99;60.30
70200;BME280;57587;55.688;37.600;2023-02-18T14:54:57;98364.59;;;-4.98;60.61
70200;BME280;57587;55.688;37.600;2023-02-18T14:57:50;98353.06;;;-4.96;60.31
70200;BME280;57587;55.688;37.600;2023-02-18T15:00:24;98365.78;;;-4.91;59.91
70200;BME280;57587;55.688;37.600;2023-02-18T15:02:53;98361.69;;;-5.18;60.34
70200;BME280;57587;55.688;37.600;2023-02-18T15:05:31;98359.50;;;-5.35;60.79
70200;BME280;57587;55.688;37.600;2023-02-18T15:07:59;98342.63;;;-5.42;61.46
70200;BME280;57587;55.688;37.600;2023-02-18T15:10:38;98366.31;;;-5.45;61.26
70200;BME280;57587;55.688;37.600;2023-02-18T15:13:27;98333.78;;;-5.40;61.73
70200;BME280;57587;55.688;37.600;2023-02-18T15:16:07;98327.88;;;-5.30;61.83
70200;BME280;57587;55.688;37.600;2023-02-18T15:18:43;98329.16;;;-5.36;62.09
70200;BME280;57587;55.688;37.600;2023-02-18T15:21:28;98316.63;;;-5.31;61.66
70200;BME280;57587;55.688;37.600;2023-02-18T15:27:20;98297.66;;;-5.22;62.11
70200;BME280;57587;55.688;37.600;2023-02-18T15:29:51;98311.53;;;-5.21;62.30
70200;BME280;57587;55.688;37.600;2023-02-18T15:32:27;98311.75;;;-5.24;62.29
70200;BME280;57587;55.688;37.600;2023-02-18T15:34:58;98303.13;;;-5.25;62.35
70200;BME280;57587;55.688;37.600;2023-02-18T15:37:30;98329.88;;;-5.34;62.42
70200;BME280;57587;55.688;37.600;2023-02-18T15:39:57;98299.56;;;-5.35;62.51
70200;BME280;57587;55.688;37.600;2023-02-18T15:42:30;98307.25;;;-5.34;62.31
70200;BME280;57587;55.688;37.600;2023-02-18T15:47:53;98305.81;;;-5.38;62.17
70200;BME280;57587;55.688;37.600;2023-02-18T15:50:24;98309.47;;;-5.40;62.42
70200;BME280;57587;55.688;37.600;2023-02-18T15:52:53;98296.47;;;-5.29;62.56
70200;BME280;57587;55.688;37.600;2023-02-18T16:03:22;98275.00;;;-5.44;62.88
70200;BME280;57587;55.688;37.600;2023-02-18T16:06:08;98275.84;;;-5.21;61.78
70200;BME280;57587;55.688;37.600;2023-02-18T16:08:37;98303.09;;;-5.36;62.22
70200;BME280;57587;55.688;37.600;2023-02-18T16:11:10;98309.75;;;-5.32;62.31